Time;durP1;ratioP1;P1;durP2;ratioP2;P2;SDS_P1;SDS_P2;PMS_P1;PMS_P2;Temp;Humidity;BMP_temperature;BMP_pressure;BME280_temperature;BME280_humidity;BME280_pressure;Samples;Min_cycle;Max_cycle;Signal;HPM_P1;HPM_P2
2023/05/16 00:01:29;;;;;;;16.73;9.70;;;13.60;81.80;;;;;;5039812;28;20325;-74
2023/05/16 00:03:56;;;;;;;18.27;11.13;;;13.60;81.90;;;;;;5042324;28;20185;-73
2023/05/16 00:06:22;;;;;;;20.90;11.40;;;13.60;82.10;;;;;;5042249;28;20208;-73
2023/05/16 00:08:48;;;;;;;23.13;13.10;;;13.60;82.10;;;;;;5038492;28;20793;-74
2023/05/16 00:11:15;;;;;;;21.80;13.17;;;13.60;82.10;;;;;;5037230;28;20177;-73
2023/05/16 00:13:41;;;;;;;25.53;13.97;;;13.60;82.10;;;;;;5036947;28;20536;-72
2023/05/16 00:16:07;;;;;;;23.50;11.63;;;13.60;82.10;;;;;;5037414;28;20448;-74
2023/05/16 00:18:36;;;;;;;31.27;13.30;;;13.60;82.40;;;;;;5046027;28;20427;-74
2023/05/16 00:21:05;;;;;;;17.80;11.17;;;13.60;82.40;;;;;;5036889;28;20423;-74
2023/05/16 00:23:31;;;;;;;29.10;14.60;;;13.60;82.40;;;;;;5030210;28;20529;-73
2023/05/16 00:25:56;;;;;;;20.93;12.67;;;13.50;82.20;;;;;;5032368;28;20468;-74
2023/05/16 00:28:22;;;;;;;19.30;11.43;;;13.40;82.40;;;;;;5031786;28;20564;-74
2023/05/16 00:30:48;;;;;;;19.57;11.17;;;13.50;82.80;;;;;;5031878;28;20250;-73
2023/05/16 00:33:14;;;;;;;17.57;12.07;;;13.50;83.00;;;;;;5029783;28;20506;-72
2023/05/16 00:35:39;;;;;;;17.60;10.93;;;13.60;82.70;;;;;;5036191;28;20185;-74
2023/05/16 00:38:05;;;;;;;19.93;12.30;;;13.50;82.80;;;;;;5031408;28;20236;-75
2023/05/16 00:40:31;;;;;;;18.53;11.37;;;13.50;82.80;;;;;;5031949;28;20192;-73
2023/05/16 00:42:57;;;;;;;22.90;12.20;;;13.60;83.00;;;;;;5031060;28;20263;-76
2023/05/16 00:45:23;;;;;;;22.77;12.80;;;13.60;83.00;;;;;;5045683;28;20471;-74
2023/05/16 00:47:50;;;;;;;28.03;14.90;;;13.60;82.80;;;;;;5025182;28;20933;-73
2023/05/16 00:50:16;;;;;;;27.97;15.27;;;13.60;83.10;;;;;;5037540;28;20458;-74
2023/05/16 00:52:42;;;;;;;27.77;14.60;;;13.60;83.10;;;;;;5029256;28;20539;-75
2023/05/16 00:55:09;;;;;;;30.83;17.20;;;13.50;83.10;;;;;;5035442;28;20520;-74
2023/05/16 00:57:36;;;;;;;31.90;16.90;;;13.50;83.40;;;;;;5031650;28;20196;-74
2023/05/16 01:00:06;;;;;;;34.00;17.40;;;13.40;83.60;;;;;;5031414;28;20431;-75
2023/05/16 01:02:33;;;;;;;37.53;20.33;;;13.40;83.60;;;;;;5028542;28;20498;-75
2023/05/16 01:05:00;;;;;;;36.23;20.80;;;13.20;84.10;;;;;;5029932;28;20891;-75
2023/05/16 01:07:25;;;;;;;30.97;17.70;;;13.10;84.40;;;;;;5037656;28;20416;-74
2023/05/16 01:09:52;;;;;;;38.10;21.67;;;13.10;84.90;;;;;;5039505;28;20973;-75
2023/05/16 01:12:29;;;;;;;32.83;17.53;;;13.10;84.90;;;;;;5035788;28;20266;-74
2023/05/16 01:15:39;;;;;;;33.30;18.37;;;13.20;85.00;;;;;;5039023;28;20421;-75
2023/05/16 01:18:30;;;;;;;43.73;21.50;;;13.20;84.70;;;;;;5044791;28;20416;-74
2023/05/16 01:21:02;;;;;;;35.57;20.33;;;13.00;85.20;;;;;;5041097;28;20450;-75
2023/05/16 01:24:08;;;;;;;30.90;19.70;;;12.90;85.90;;;;;;5045213;28;20443;-75
2023/05/16 01:26:35;;;;;;;45.67;22.63;;;12.90;86.00;;;;;;4986884;28;20485;-73
2023/05/16 01:29:02;;;;;;;40.50;21.27;;;13.00;85.90;;;;;;4989929;28;20430;-73
2023/05/16 01:31:28;;;;;;;44.67;24.93;;;12.90;85.50;;;;;;4987283;28;20682;-73
2023/05/16 01:33:54;;;;;;;41.60;23.50;;;12.70;85.90;;;;;;4988171;28;20513;-73
2023/05/16 01:36:51;;;;;;;34.53;20.20;;;12.60;86.60;;;;;;4959786;28;20538;-72
2023/05/16 01:39:44;;;;;;;44.63;22.33;;;12.70;86.90;;;;;;4984466;28;20202;-73
2023/05/16 01:42:18;;;;;;;42.10;22.47;;;12.70;86.60;;;;;;4987380;28;20469;-73
2023/05/16 01:44:55;;;;;;;48.70;26.17;;;12.80;86.20;;;;;;4987885;28;20445;-73
2023/05/16 01:47:24;;;;;;;45.60;24.00;;;12.50;86.60;;;;;;4984279;28;20440;-73
2023/05/16 01:50:08;;;;;;;51.20;26.07;;;12.60;86.90;;;;;;4989284;28;20608;-73
2023/05/16 01:52:55;;;;;;;52.33;25.97;;;12.60;86.80;;;;;;4986913;28;20516;-72
2023/05/16 01:55:31;;;;;;;51.30;26.20;;;12.50;86.80;;;;;;4991046;28;20410;-73
2023/05/16 01:57:59;;;;;;;56.27;27.20;;;12.40;87.40;;;;;;4987920;28;20437;-74
2023/05/16 02:00:25;;;;;;;58.90;28.97;;;12.50;87.60;;;;;;5011384;28;20438;-73
2023/05/16 02:02:50;;;;;;;50.97;25.83;;;12.30;87.60;;;;;;5028236;28;20824;-74
2023/05/16 02:05:16;;;;;;;47.47;23.17;;;12.30;87.80;;;;;;5029910;28;20212;-73
2023/05/16 02:07:42;;;;;;;54.57;26.03;;;12.40;88.00;;;;;;5031896;28;20181;-73
2023/05/16 02:10:08;;;;;;;48.40;26.30;;;12.40;87.60;;;;;;5032980;28;20556;-73
2023/05/16 02:12:33;;;;;;;61.03;27.90;;;12.50;87.10;;;;;;5032429;28;20471;-73
2023/05/16 02:14:59;;;;;;;55.60;27.50;;;12.40;87.10;;;;;;5037681;28;20431;-73
2023/05/16 02:17:25;;;;;;;56.00;26.30;;;12.20;87.70;;;;;;5039060;28;20632;-75
2023/05/16 02:19:51;;;;;;;47.30;24.60;;;12.30;87.70;;;;;;5048322;28;20172;-73
2023/05/16 02:22:16;;;;;;;51.13;25.23;;;12.30;87.60;;;;;;5041063;28;20215;-73
2023/05/16 02:24:42;;;;;;;62.87;28.30;;;12.30;87.60;;;;;;5035899;28;20181;-73
2023/05/16 02:27:07;;;;;;;58.43;27.13;;;12.30;87.40;;;;;;5036768;28;20217;-73
2023/05/16 02:29:33;;;;;;;60.53;26.33;;;12.30;87.30;;;;;;5034849;28;20188;-73
2023/05/16 02:31:59;;;;;;;55.60;25.73;;;12.30;87.40;;;;;;5036204;28;20671;-72
2023/05/16 02:34:24;;;;;;;61.87;25.07;;;12.30;87.60;;;;;;5038598;28;20668;-72
2023/05/16 02:36:50;;;;;;;62.57;28.30;;;12.30;87.40;;;;;;5035501;28;20538;-73
2023/05/16 02:39:15;;;;;;;53.23;25.43;;;12.30;87.40;;;;;;5037659;28;20663;-74
2023/05/16 02:41:41;;;;;;;53.07;28.33;;;12.20;87.40;;;;;;5031943;28;20220;-74
2023/05/16 02:44:07;;;;;;;61.60;29.00;;;12.20;87.70;;;;;;5033568;28;20197;-74
2023/05/16 02:46:33;;;;;;;57.00;27.77;;;12.20;87.80;;;;;;5036257;28;20300;-73
2023/05/16 02:48:59;;;;;;;54.03;26.23;;;12.30;87.80;;;;;;5040729;28;20181;-73
2023/05/16 02:51:26;;;;;;;59.43;27.50;;;12.20;87.60;;;;;;5031372;28;20502;-74
2023/05/16 02:53:52;;;;;;;64.50;30.43;;;12.20;87.60;;;;;;5033464;28;20511;-72
2023/05/16 02:56:18;;;;;;;66.50;28.20;;;12.10;87.70;;;;;;5033189;28;20434;-73
2023/05/16 02:58:47;;;;;;;59.47;28.70;;;12.10;88.00;;;;;;5034918;28;20420;-73
2023/05/16 03:01:12;;;;;;;71.50;30.80;;;12.10;88.00;;;;;;5032149;28;20442;-73
2023/05/16 03:03:38;;;;;;;61.00;28.90;;;12.10;88.10;;;;;;5032086;28;20424;-73
2023/05/16 03:06:04;;;;;;;59.33;28.10;;;12.20;87.80;;;;;;5032822;28;20209;-73
2023/05/16 03:08:31;;;;;;;69.33;29.80;;;12.20;87.70;;;;;;5034141;28;20208;-73
2023/05/16 03:10:56;;;;;;;61.97;28.43;;;12.20;87.60;;;;;;5041554;28;20842;-72
2023/05/16 03:13:22;;;;;;;62.67;29.70;;;12.10;87.70;;;;;;5032997;28;20459;-73
2023/05/16 03:15:48;;;;;;;65.67;30.40;;;12.10;88.00;;;;;;5033286;28;20627;-73
2023/05/16 03:18:14;;;;;;;71.37;32.10;;;12.10;88.10;;;;;;5035995;28;20676;-72
2023/05/16 03:20:40;;;;;;;62.90;28.90;;;12.10;88.00;;;;;;5042980;28;20425;-73
2023/05/16 03:23:08;;;;;;;70.67;30.83;;;12.00;88.40;;;;;;5050840;28;21034;-72
2023/05/16 03:25:35;;;;;;;69.80;28.43;;;12.00;88.60;;;;;;5046438;28;20239;-72
2023/05/16 03:28:01;;;;;;;67.90;30.47;;;11.80;89.20;;;;;;5049595;28;20507;-72
2023/05/16 03:30:27;;;;;;;66.53;28.17;;;11.80;89.20;;;;;;5062046;28;20432;-72
2023/05/16 03:32:52;;;;;;;68.30;30.57;;;11.80;89.30;;;;;;5047251;28;20493;-73
2023/05/16 03:35:18;;;;;;;72.13;31.63;;;11.90;89.50;;;;;;5052630;28;20271;-72
2023/05/16 03:37:43;;;;;;;64.80;29.87;;;11.80;89.30;;;;;;5050820;28;20678;-72
2023/05/16 03:40:10;;;;;;;74.33;32.07;;;11.90;89.50;;;;;;5049765;28;20581;-74
2023/05/16 03:42:35;;;;;;;79.17;34.20;;;11.90;89.50;;;;;;5036467;28;20212;-72
2023/05/16 03:45:01;;;;;;;74.23;31.87;;;12.00;89.30;;;;;;5031979;28;20443;-74
2023/05/16 03:47:30;;;;;;;78.80;32.63;;;12.00;89.00;;;;;;5034602;28;20252;-74
2023/05/16 03:49:55;;;;;;;74.87;34.07;;;11.90;88.90;;;;;;5032886;28;20177;-74
2023/05/16 03:52:21;;;;;;;80.93;33.47;;;11.90;89.20;;;;;;5029884;28;21020;-74
2023/05/16 03:54:47;;;;;;;75.43;32.17;;;12.00;89.30;;;;;;5031942;28;20605;-73
2023/05/16 03:57:12;;;;;;;82.53;33.67;;;11.90;89.30;;;;;;5031455;28;20208;-74
2023/05/16 03:59:38;;;;;;;82.37;34.97;;;11.90;89.60;;;;;;5031375;28;20197;-74
2023/05/16 04:02:05;;;;;;;81.60;34.37;;;11.90;89.70;;;;;;5030420;28;20279;-74
2023/05/16 04:04:31;;;;;;;75.57;35.23;;;11.90;89.70;;;;;;5039299;28;20195;-74
2023/05/16 04:06:56;;;;;;;79.37;33.77;;;12.00;89.60;;;;;;5037104;28;20472;-73
2023/05/16 04:09:22;;;;;;;68.67;30.17;;;12.00;89.60;;;;;;5042633;28;20184;-73
2023/05/16 04:11:47;;;;;;;90.50;37.57;;;12.00;89.30;;;;;;5035064;28;20919;-74
2023/05/16 04:14:14;;;;;;;92.03;36.23;;;12.00;89.70;;;;;;5032651;28;20192;-73
2023/05/16 04:16:40;;;;;;;81.73;33.83;;;11.90;89.70;;;;;;5039561;28;20214;-74
2023/05/16 04:19:06;;;;;;;70.37;32.93;;;11.90;90.00;;;;;;5032911;28;20428;-74
2023/05/16 04:21:32;;;;;;;82.20;33.13;;;12.00;90.10;;;;;;5033636;28;20478;-74
2023/05/16 04:23:57;;;;;;;85.50;37.90;;;12.00;90.00;;;;;;5034393;28;20181;-73
2023/05/16 04:26:23;;;;;;;84.83;35.80;;;12.00;89.70;;;;;;5034799;28;20877;-74
2023/05/16 04:28:49;;;;;;;88.90;38.03;;;11.90;90.00;;;;;;5031413;28;20177;-72
2023/05/16 04:31:15;;;;;;;79.80;33.03;;;11.80;90.30;;;;;;5032947;28;20231;-75
2023/05/16 04:33:41;;;;;;;84.70;33.30;;;11.90;90.50;;;;;;5031110;28;20631;-73
2023/05/16 04:36:07;;;;;;;86.60;36.03;;;12.10;90.50;;;;;;5031800;28;20196;-72
2023/05/16 04:38:32;;;;;;;83.30;35.67;;;12.00;90.10;;;;;;5033950;28;20243;-74
2023/05/16 04:40:58;;;;;;;88.63;35.10;;;12.00;90.10;;;;;;5030362;28;20829;-73
2023/05/16 04:43:25;;;;;;;77.63;34.30;;;12.10;90.10;;;;;;5030023;28;20228;-74
2023/05/16 04:45:52;;;;;;;82.33;34.40;;;12.30;89.90;;;;;;5031795;28;20538;-75
2023/05/16 04:48:18;;;;;;;86.13;37.40;;;12.40;89.60;;;;;;5039969;28;20457;-74
2023/05/16 04:50:44;;;;;;;87.37;35.07;;;12.30;88.70;;;;;;5030933;28;20938;-73
2023/05/16 04:53:10;;;;;;;85.67;35.80;;;12.20;89.00;;;;;;5030730;28;20467;-75
2023/05/16 04:55:35;;;;;;;77.83;35.10;;;12.20;89.60;;;;;;5031250;28;20436;-73
2023/05/16 04:58:01;;;;;;;84.53;35.40;;;12.20;89.50;;;;;;5037968;28;20188;-72
2023/05/16 05:00:27;;;;;;;79.80;34.70;;;12.30;89.50;;;;;;5035837;28;20700;-73
2023/05/16 05:02:53;;;;;;;78.73;35.40;;;12.30;89.20;;;;;;5030941;28;20200;-74
2023/05/16 05:05:18;;;;;;;80.70;33.03;;;12.50;89.30;;;;;;5030003;28;20221;-74
2023/05/16 05:07:44;;;;;;;74.27;35.20;;;12.50;89.00;;;;;;5035126;28;20185;-73
2023/05/16 05:10:10;;;;;;;86.73;35.77;;;12.50;88.60;;;;;;5035949;28;20519;-74
2023/05/16 05:12:36;;;;;;;79.27;33.27;;;12.40;88.40;;;;;;5029178;28;20229;-72
2023/05/16 05:15:02;;;;;;;78.03;33.30;;;12.30;89.00;;;;;;5034137;28;20188;-73
2023/05/16 05:17:28;;;;;;;86.30;35.40;;;12.40;88.90;;;;;;5031496;28;20276;-73
2023/05/16 05:19:54;;;;;;;82.30;35.60;;;12.30;88.90;;;;;;5034581;28;20412;-73
2023/05/16 05:22:20;;;;;;;93.50;41.30;;;12.20;89.30;;;;;;5034207;28;20458;-73
2023/05/16 05:24:45;;;;;;;88.07;36.53;;;12.10;89.90;;;;;;5039502;28;20181;-74
2023/05/16 05:27:11;;;;;;;89.50;35.10;;;12.10;90.10;;;;;;5042841;28;20229;-73
2023/05/16 05:29:42;;;;;;;75.50;34.03;;;12.20;89.90;;;;;;5040367;28;20176;-73
2023/05/16 05:32:08;;;;;;;80.20;34.70;;;12.20;89.60;;;;;;5030440;28;20455;-74
2023/05/16 05:34:33;;;;;;;84.20;37.03;;;12.20;89.60;;;;;;5034138;28;20431;-74
2023/05/16 05:36:59;;;;;;;83.60;34.40;;;12.20;90.10;;;;;;5039119;28;20193;-73
2023/05/16 05:39:25;;;;;;;87.90;33.90;;;12.20;89.90;;;;;;5034040;28;20185;-74
2023/05/16 05:41:54;;;;;;;88.10;39.33;;;12.30;89.90;;;;;;5033394;28;20234;-74
2023/05/16 05:44:19;;;;;;;90.20;39.07;;;12.30;89.50;;;;;;5033259;28;20212;-73
2023/05/16 05:46:45;;;;;;;77.30;33.90;;;12.20;89.50;;;;;;5032930;28;20459;-73
2023/05/16 05:49:11;;;;;;;79.40;33.53;;;12.20;89.90;;;;;;5033287;28;20189;-74
2023/05/16 05:51:37;;;;;;;83.10;35.40;;;12.30;89.70;;;;;;5038540;28;20248;-74
2023/05/16 05:54:03;;;;;;;86.17;36.53;;;12.30;89.50;;;;;;5028966;28;20531;-74
2023/05/16 05:56:28;;;;;;;80.77;33.80;;;12.40;89.70;;;;;;5030074;28;20745;-75
2023/05/16 05:58:54;;;;;;;77.87;33.70;;;12.30;88.70;;;;;;5036407;28;20191;-75
2023/05/16 06:01:21;;;;;;;83.20;34.00;;;12.20;89.20;;;;;;5038111;28;20244;-74
2023/05/16 06:03:46;;;;;;;74.87;33.00;;;12.20;89.20;;;;;;5034545;28;20181;-74
2023/05/16 06:06:13;;;;;;;84.33;36.03;;;12.20;89.60;;;;;;5035982;28;20517;-74
2023/05/16 06:08:39;;;;;;;78.87;32.17;;;12.20;89.70;;;;;;5035023;28;20420;-74
2023/05/16 06:11:05;;;;;;;79.00;33.80;;;12.30;89.90;;;;;;5034368;28;20435;-75
2023/05/16 06:13:31;;;;;;;77.47;34.20;;;12.20;89.50;;;;;;5036429;28;20739;-74
2023/05/16 06:15:57;;;;;;;84.20;34.13;;;12.00;89.90;;;;;;5035126;28;20423;-75
2023/05/16 06:18:22;;;;;;;71.33;32.40;;;12.00;90.00;;;;;;5036903;28;20238;-74
2023/05/16 06:20:48;;;;;;;81.67;33.83;;;12.10;90.20;;;;;;5033831;28;20204;-75
2023/05/16 06:23:13;;;;;;;80.10;33.50;;;12.20;90.00;;;;;;5035672;28;20237;-74
2023/05/16 06:25:39;;;;;;;69.47;30.00;;;12.30;89.70;;;;;;5040446;28;20211;-74
2023/05/16 06:28:04;;;;;;;71.27;30.87;;;12.40;89.50;;;;;;5032810;28;20185;-74
2023/05/16 06:30:30;;;;;;;74.43;32.43;;;12.60;89.30;;;;;;5033063;28;20212;-73
2023/05/16 06:32:56;;;;;;;79.07;32.57;;;12.50;88.10;;;;;;5035306;28;20215;-75
2023/05/16 06:35:22;;;;;;;73.87;32.13;;;12.60;88.10;;;;;;5035825;28;20208;-74
2023/05/16 06:37:47;;;;;;;64.73;30.27;;;12.50;87.80;;;;;;5040123;28;20654;-74
2023/05/16 06:40:13;;;;;;;72.67;31.00;;;12.40;87.80;;;;;;5040131;28;20428;-73
2023/05/16 06:42:39;;;;;;;70.73;30.50;;;12.30;88.40;;;;;;5035924;28;20262;-75
2023/05/16 06:45:06;;;;;;;81.77;33.33;;;12.30;88.60;;;;;;5033772;28;20567;-74
2023/05/16 06:47:32;;;;;;;77.00;31.90;;;12.20;89.00;;;;;;5035392;28;20419;-75
2023/05/16 06:49:57;;;;;;;63.17;28.57;;;12.30;89.00;;;;;;5036115;28;20419;-74
2023/05/16 06:52:23;;;;;;;60.33;28.57;;;12.30;88.90;;;;;;5035727;28;20221;-73
2023/05/16 06:54:49;;;;;;;71.63;31.77;;;12.30;88.60;;;;;;5035778;28;20224;-73
2023/05/16 06:57:15;;;;;;;64.97;29.67;;;12.40;88.60;;;;;;5035602;28;20416;-74
2023/05/16 06:59:41;;;;;;;69.03;32.60;;;12.40;88.40;;;;;;5037008;28;20252;-73
2023/05/16 07:02:07;;;;;;;67.63;29.50;;;12.30;88.40;;;;;;5040884;28;20296;-74
2023/05/16 07:04:35;;;;;;;65.13;29.40;;;12.20;89.00;;;;;;5039964;28;20462;-73
2023/05/16 07:07:01;;;;;;;62.93;28.57;;;12.30;88.90;;;;;;5039645;28;20193;-73
2023/05/16 07:09:26;;;;;;;59.83;28.00;;;12.20;88.70;;;;;;5040856;28;20837;-74
2023/05/16 07:11:52;;;;;;;58.27;29.60;;;12.30;88.70;;;;;;5057161;28;20759;-74
2023/05/16 07:14:17;;;;;;;66.80;29.93;;;12.40;88.30;;;;;;5053754;28;20192;-73
2023/05/16 07:16:43;;;;;;;59.77;28.43;;;12.30;88.10;;;;;;5036564;28;20648;-74
2023/05/16 07:19:09;;;;;;;52.90;26.57;;;12.30;88.10;;;;;;5037103;28;20504;-75
2023/05/16 07:21:34;;;;;;;49.03;24.80;;;12.20;88.10;;;;;;5037421;28;20204;-74
2023/05/16 07:24:00;;;;;;;51.80;25.50;;;12.20;88.00;;;;;;5036787;28;20619;-76
2023/05/16 07:26:26;;;;;;;59.60;26.10;;;12.10;88.10;;;;;;5040184;28;20612;-74
2023/05/16 07:28:52;;;;;;;55.73;25.77;;;12.20;88.00;;;;;;5036767;28;20848;-74
2023/05/16 07:31:17;;;;;;;47.67;22.93;;;12.30;87.70;;;;;;5036313;28;20181;-74
2023/05/16 07:33:45;;;;;;;34.80;18.63;;;12.30;87.60;;;;;;5026498;28;20196;-74
2023/05/16 07:36:11;;;;;;;33.17;17.47;;;12.20;86.60;;;;;;5036083;28;20181;-73
2023/05/16 07:38:37;;;;;;;36.40;18.40;;;12.10;86.30;;;;;;5035786;28;20420;-75
2023/05/16 07:41:03;;;;;;;31.23;17.60;;;12.10;86.30;;;;;;5036904;28;20563;-74
2023/05/16 07:43:29;;;;;;;29.10;15.77;;;12.00;86.00;;;;;;5035964;28;20358;-74
2023/05/16 07:45:54;;;;;;;27.93;14.90;;;12.20;86.00;;;;;;5037593;28;20197;-74
2023/05/16 07:48:20;;;;;;;24.97;13.43;;;12.20;84.70;;;;;;5049362;28;20420;-75
2023/05/16 07:50:46;;;;;;;23.30;14.53;;;12.10;84.70;;;;;;5037071;28;20252;-73
2023/05/16 07:53:12;;;;;;;25.37;13.20;;;12.20;84.40;;;;;;5036650;28;20436;-73
2023/05/16 07:55:37;;;;;;;23.37;13.70;;;12.20;83.00;;;;;;5043128;28;20241;-74
2023/05/16 07:58:03;;;;;;;27.87;14.20;;;12.20;83.30;;;;;;5038616;28;20812;-74
2023/05/16 08:00:29;;;;;;;23.67;12.90;;;12.40;83.10;;;;;;5038618;28;20185;-74
2023/05/16 08:02:55;;;;;;;22.77;12.90;;;12.60;82.80;;;;;;5037985;28;20212;-74
2023/05/16 08:05:23;;;;;;;23.37;13.50;;;12.80;82.40;;;;;;5047570;28;20287;-74
2023/05/16 08:07:48;;;;;;;24.67;14.40;;;12.50;82.10;;;;;;5043127;28;20419;-74
2023/05/16 08:10:14;;;;;;;24.70;13.90;;;12.40;83.00;;;;;;5041966;28;20428;-75
2023/05/16 08:12:39;;;;;;;23.27;13.23;;;12.50;83.30;;;;;;5040658;28;20246;-74
2023/05/16 08:15:06;;;;;;;24.03;14.47;;;12.60;82.80;;;;;;5035501;28;20181;-74
2023/05/16 08:17:31;;;;;;;24.83;13.00;;;12.60;82.50;;;;;;5037759;28;20192;-74
2023/05/16 08:19:58;;;;;;;24.47;14.00;;;12.60;83.30;;;;;;5036471;28;20798;-74
2023/05/16 08:22:24;;;;;;;25.30;14.30;;;12.60;83.30;;;;;;5038861;28;20212;-75
2023/05/16 08:24:50;;;;;;;23.83;13.30;;;12.40;84.00;;;;;;5036468;28;20420;-74
2023/05/16 08:27:15;;;;;;;28.03;15.17;;;12.40;84.00;;;;;;5037050;28;20510;-75
2023/05/16 08:29:41;;;;;;;27.00;14.93;;;12.30;84.40;;;;;;5035029;28;20614;-74
2023/05/16 08:32:08;;;;;;;27.73;14.90;;;12.40;84.40;;;;;;5035338;28;20203;-74
2023/05/16 08:34:34;;;;;;;26.33;14.57;;;12.30;84.40;;;;;;5034095;28;20195;-75
2023/05/16 08:36:59;;;;;;;26.03;15.47;;;12.40;83.80;;;;;;5034003;28;20853;-74
2023/05/16 08:39:25;;;;;;;26.40;14.50;;;12.20;84.60;;;;;;5034607;28;20181;-75
2023/05/16 08:41:51;;;;;;;27.57;14.93;;;12.30;84.90;;;;;;5032486;28;20580;-74
2023/05/16 08:44:20;;;;;;;29.87;16.23;;;12.30;84.70;;;;;;5040022;28;20196;-74
2023/05/16 08:46:53;;;;;;;38.87;16.47;;;12.30;84.60;;;;;;5035834;28;20203;-74
2023/05/16 08:49:19;;;;;;;30.00;16.37;;;12.30;84.60;;;;;;5034838;28;20512;-74
2023/05/16 08:51:47;;;;;;;33.43;19.20;;;12.30;84.40;;;;;;5036829;28;20436;-74
2023/05/16 08:54:14;;;;;;;36.73;17.67;;;12.10;84.70;;;;;;5037683;28;20484;-73
2023/05/16 08:56:44;;;;;;;34.33;18.37;;;12.00;85.50;;;;;;5038333;28;20427;-74
2023/05/16 08:59:11;;;;;;;37.30;18.83;;;12.20;85.60;;;;;;5036713;28;20423;-75
2023/05/16 09:01:37;;;;;;;29.37;15.90;;;12.20;85.30;;;;;;5037248;28;20997;-74
2023/05/16 09:04:07;;;;;;;35.10;19.00;;;12.30;85.50;;;;;;5044115;28;20466;-73
2023/05/16 09:06:33;;;;;;;37.53;18.00;;;12.10;85.30;;;;;;5035503;28;20558;-74
2023/05/16 09:08:59;;;;;;;39.10;17.80;;;12.00;86.00;;;;;;5043614;28;20474;-74
2023/05/16 09:11:25;;;;;;;45.10;19.27;;;12.00;86.50;;;;;;5035676;28;20447;-75
2023/05/16 09:13:50;;;;;;;37.00;17.87;;;12.00;86.50;;;;;;5044497;28;20177;-73
2023/05/16 09:16:20;;;;;;;39.20;18.03;;;12.10;86.50;;;;;;5036788;28;20193;-73
2023/05/16 09:18:55;;;;;;;41.17;19.23;;;12.30;86.30;;;;;;5038612;28;20239;-76
2023/05/16 09:21:22;;;;;;;35.03;17.50;;;12.40;85.70;;;;;;5043676;28;20450;-73
2023/05/16 09:23:49;;;;;;;36.83;18.47;;;12.30;85.70;;;;;;5035841;28;21266;-73
2023/05/16 09:26:15;;;;;;;42.63;20.60;;;12.30;85.60;;;;;;5039810;28;20466;-73
2023/05/16 09:28:42;;;;;;;37.63;20.43;;;12.20;86.50;;;;;;5037094;28;20484;-73
2023/05/16 09:31:22;;;;;;;36.57;18.53;;;12.40;86.60;;;;;;5035943;28;20469;-74
2023/05/16 09:33:49;;;;;;;40.57;20.00;;;12.40;85.70;;;;;;5034591;28;20431;-73
2023/05/16 09:36:15;;;;;;;43.00;20.00;;;12.50;85.60;;;;;;5043719;28;20459;-73
2023/05/16 09:38:41;;;;;;;36.57;19.27;;;12.30;86.00;;;;;;5036276;28;20427;-74
2023/05/16 09:41:09;;;;;;;44.00;19.90;;;12.50;86.50;;;;;;5038503;28;20581;-73
2023/05/16 09:43:38;;;;;;;40.63;19.33;;;12.70;85.90;;;;;;5035834;28;20204;-74
2023/05/16 09:46:04;;;;;;;37.17;19.70;;;13.00;85.50;;;;;;5035990;28;20777;-74
2023/05/16 09:48:31;;;;;;;44.50;21.47;;;12.70;84.60;;;;;;5033840;28;20428;-74
2023/05/16 09:51:02;;;;;;;40.93;20.40;;;12.80;85.20;;;;;;5040283;28;20178;-74
2023/05/16 09:53:31;;;;;;;45.23;20.83;;;12.90;84.40;;;;;;5032362;28;20505;-73
2023/05/16 09:56:06;;;;;;;40.90;19.10;;;13.10;83.60;;;;;;5034451;28;20424;-74
2023/05/16 09:58:34;;;;;;;40.87;20.30;;;13.30;83.80;;;;;;5032311;28;20442;-74
2023/05/16 10:01:00;;;;;;;40.40;19.10;;;13.70;81.70;;;;;;5040239;28;20957;-74
2023/05/16 10:03:26;;;;;;;34.83;18.93;;;14.00;81.10;;;;;;5045556;28;21011;-74
2023/05/16 10:05:53;;;;;;;40.47;19.97;;;13.90;79.30;;;;;;5036431;28;20447;-75
2023/05/16 10:08:24;;;;;;;38.80;18.60;;;13.70;80.20;;;;;;5042010;28;20422;-73
2023/05/16 10:10:56;;;;;;;39.07;19.53;;;13.60;81.10;;;;;;5042175;28;20458;-75
2023/05/16 10:13:27;;;;;;;39.37;18.70;;;13.50;80.80;;;;;;5036366;28;20456;-75
2023/05/16 10:15:55;;;;;;;34.30;18.93;;;13.40;81.50;;;;;;5034427;28;20415;-74
2023/05/16 10:18:23;;;;;;;46.17;20.90;;;13.30;81.50;;;;;;5036619;28;20466;-75
2023/05/16 10:20:52;;;;;;;44.43;22.70;;;13.10;82.80;;;;;;5032398;28;20423;-75
2023/05/16 10:23:19;;;;;;;41.37;21.40;;;12.90;83.60;;;;;;5043996;28;20473;-73
2023/05/16 10:25:47;;;;;;;43.00;23.60;;;13.00;83.70;;;;;;5037415;28;20455;-73
2023/05/16 10:28:15;;;;;;;40.10;19.70;;;13.10;83.00;;;;;;5035744;28;20459;-74
2023/05/16 10:30:43;;;;;;;36.13;18.50;;;13.10;83.00;;;;;;5033157;28;20497;-72
2023/05/16 10:33:13;;;;;;;39.50;19.10;;;13.30;82.20;;;;;;5029559;28;20470;-74
2023/05/16 10:35:39;;;;;;;45.87;20.40;;;13.40;81.90;;;;;;5036377;28;20519;-72
2023/05/16 10:38:08;;;;;;;36.57;17.40;;;13.60;82.40;;;;;;5036417;28;20455;-73
2023/05/16 10:40:36;;;;;;;35.30;17.13;;;13.70;81.20;;;;;;5035359;28;20427;-74
2023/05/16 10:43:02;;;;;;;38.73;16.70;;;14.00;80.00;;;;;;5028193;28;20466;-74
2023/05/16 10:45:29;;;;;;;34.57;17.80;;;14.00;79.00;;;;;;5031832;28;20424;-73
2023/05/16 10:47:58;;;;;;;33.03;17.07;;;13.90;78.60;;;;;;5033715;28;20442;-74
2023/05/16 10:50:40;;;;;;;38.63;18.70;;;13.80;79.00;;;;;;5038923;28;20430;-73
2023/05/16 10:53:16;;;;;;;35.30;17.43;;;13.30;81.10;;;;;;5028916;28;20512;-73
2023/05/16 10:55:57;;;;;;;41.33;18.17;;;13.50;81.20;;;;;;5041002;28;20431;-73
2023/05/16 10:58:30;;;;;;;43.57;20.40;;;13.50;81.20;;;;;;5038412;28;20472;-74
2023/05/16 11:01:23;;;;;;;40.17;19.80;;;13.50;81.20;;;;;;5040109;28;20762;-74
2023/05/16 11:04:03;;;;;;;41.80;17.57;;;13.40;82.10;;;;;;5033579;28;20420;-73
2023/05/16 11:06:39;;;;;;;31.97;16.80;;;13.50;82.10;;;;;;5036022;28;20470;-73
2023/05/16 11:09:14;;;;;;;26.97;14.40;;;13.10;81.50;;;;;;5035296;28;20408;-73
2023/05/16 11:11:57;;;;;;;35.00;15.50;;;12.80;82.80;;;;;;5034322;28;20455;-74
2023/05/16 11:14:28;;;;;;;38.10;14.43;;;12.80;84.10;;;;;;5034009;28;20459;-74
2023/05/16 11:17:23;;;;;;;30.37;14.60;;;12.50;85.60;;;;;;5045444;28;20462;-73
2023/05/16 11:19:50;;;;;;;32.80;16.17;;;12.50;86.30;;;;;;5029321;28;20460;-74
2023/05/16 11:22:19;;;;;;;38.03;17.17;;;12.40;88.10;;;;;;5035939;28;20532;-75
2023/05/16 11:24:51;;;;;;;31.43;14.70;;;12.30;89.50;;;;;;5033288;28;20519;-75
2023/05/16 11:27:40;;;;;;;36.07;16.70;;;12.30;89.60;;;;;;5039415;28;20623;-76
2023/05/16 11:30:06;;;;;;;35.27;16.73;;;12.20;90.80;;;;;;5031125;28;20461;-76
2023/05/16 11:32:36;;;;;;;33.63;16.23;;;12.20;91.10;;;;;;5037044;28;20523;-73
2023/05/16 11:35:03;;;;;;;34.07;16.20;;;12.10;91.40;;;;;;5047559;28;20185;-74
2023/05/16 11:37:28;;;;;;;34.83;14.67;;;12.00;91.70;;;;;;5041196;28;20434;-74
2023/05/16 11:40:01;;;;;;;33.33;13.93;;;12.00;91.80;;;;;;5045359;28;20513;-74
2023/05/16 11:42:33;;;;;;;34.13;14.80;;;11.90;91.90;;;;;;5032063;28;20327;-74
2023/05/16 11:45:08;;;;;;;27.17;12.63;;;12.00;91.90;;;;;;5034028;28;20479;-72
2023/05/16 11:47:41;;;;;;;26.57;13.00;;;12.10;92.00;;;;;;5040153;28;20871;-76
2023/05/16 11:50:11;;;;;;;23.07;13.20;;;12.00;91.90;;;;;;5035297;28;20422;-75
2023/05/16 11:52:38;;;;;;;24.10;11.20;;;11.80;91.40;;;;;;5032125;28;20997;-75
2023/05/16 11:55:05;;;;;;;24.40;12.23;;;11.80;91.70;;;;;;5031812;28;20443;-75
2023/05/16 11:57:32;;;;;;;23.83;12.50;;;12.00;91.70;;;;;;5034433;28;20468;-76
2023/05/16 12:00:05;;;;;;;26.93;13.53;;;12.10;91.60;;;;;;5037654;28;20927;-74
2023/05/16 12:02:31;;;;;;;29.73;12.60;;;12.20;91.70;;;;;;5032463;28;20566;-75
2023/05/16 12:04:57;;;;;;;25.77;13.10;;;12.10;91.50;;;;;;5037715;28;20423;-74
2023/05/16 12:07:27;;;;;;;24.00;12.50;;;12.00;90.70;;;;;;5032822;28;20467;-73
2023/05/16 12:09:53;;;;;;;27.47;12.77;;;12.10;91.00;;;;;;5033113;28;20192;-73
2023/05/16 12:12:20;;;;;;;25.40;13.30;;;12.10;90.70;;;;;;5031968;28;20460;-74
2023/05/16 12:14:46;;;;;;;21.83;12.20;;;12.00;89.50;;;;;;5031678;28;20192;-74
2023/05/16 12:17:12;;;;;;;23.23;12.10;;;12.10;89.00;;;;;;5034540;28;20435;-74
2023/05/16 12:19:38;;;;;;;21.97;11.40;;;12.00;87.70;;;;;;5038124;28;20204;-76
2023/05/16 12:22:03;;;;;;;23.13;10.77;;;12.10;88.00;;;;;;5034631;28;20460;-73
2023/05/16 12:24:30;;;;;;;22.80;12.60;;;12.20;87.70;;;;;;5034373;28;20247;-75
2023/05/16 12:26:56;;;;;;;20.70;11.10;;;12.10;86.60;;;;;;5039760;28;20193;-74
2023/05/16 12:29:24;;;;;;;20.00;10.57;;;12.10;86.80;;;;;;5036505;28;20422;-73
2023/05/16 12:31:52;;;;;;;15.07;9.20;;;12.10;86.60;;;;;;5028911;28;20211;-74